Time;durP1;ratioP1;P1;durP2;ratioP2;P2;SDS_P1;SDS_P2;PMS_P1;PMS_P2;Temp;Humidity;BMP_temperature;BMP_pressure;BME280_temperature;BME280_humidity;BME280_pressure;Samples;Min_cycle;Max_cycle;Signal;HPM_P1;HPM_P2
2021/07/08 00:02:18;;;;;;;12.23;10.98;;;;;;;17.94;nan;101109.09;5023333;28;20041;-80
2021/07/08 00:04:44;;;;;;;13.38;11.98;;;;;;;17.92;nan;101105.63;5022387;28;20041;-80
2021/07/08 00:07:10;;;;;;;14.63;13.15;;;;;;;17.88;nan;101111.97;5024095;28;20041;-80
2021/07/08 00:09:36;;;;;;;13.60;12.30;;;;;;;17.85;nan;101109.38;5022868;28;20568;-80
2021/07/08 00:12:03;;;;;;;12.70;11.40;;;;;;;17.81;nan;101107.69;5005842;28;20061;-80
2021/07/08 00:14:28;;;;;;;12.68;11.38;;;;;;;17.78;nan;101101.53;5022825;28;20159;-80
2021/07/08 00:16:53;;;;;;;12.98;11.77;;;;;;;17.75;nan;101092.69;5005666;28;20029;-80
2021/07/08 00:19:19;;;;;;;13.60;12.30;;;;;;;17.70;nan;101089.28;5022773;28;20394;-80
2021/07/08 00:21:44;;;;;;;12.32;11.18;;;;;;;17.66;nan;101087.63;5023500;28;20049;-80
2021/07/08 00:24:10;;;;;;;12.95;11.85;;;;;;;17.65;nan;101095.66;5022699;28;20054;-80
2021/07/08 00:26:35;;;;;;;12.65;11.35;;;;;;;17.63;nan;101094.81;5005571;28;20083;-80
2021/07/08 00:29:01;;;;;;;12.05;10.82;;;;;;;17.59;nan;101090.47;5023143;28;20455;-81
2021/07/08 00:31:26;;;;;;;12.68;11.48;;;;;;;17.55;nan;101094.13;5005278;28;20538;-79
2021/07/08 00:33:51;;;;;;;11.95;10.85;;;;;;;17.52;nan;101095.97;5022855;28;20044;-80
2021/07/08 00:36:17;;;;;;;13.27;11.85;;;;;;;17.50;nan;101092.47;5022534;28;20041;-80
2021/07/08 00:38:42;;;;;;;12.15;10.95;;;;;;;17.45;nan;101091.72;5022820;28;20114;-80
2021/07/08 00:41:08;;;;;;;11.32;10.02;;;;;;;17.43;nan;101088.22;5022691;28;20032;-80
2021/07/08 00:43:33;;;;;;;11.57;10.52;;;;;;;17.40;nan;101082.97;5022805;28;20044;-80
2021/07/08 00:45:59;;;;;;;11.77;10.57;;;;;;;17.36;nan;101086.59;5022953;28;20033;-79
2021/07/08 00:48:25;;;;;;;10.98;9.93;;;;;;;17.35;nan;101084.00;5022939;28;20066;-80
2021/07/08 00:50:51;;;;;;;13.00;11.23;;;;;;;17.32;nan;101092.94;5005778;28;20036;-80
2021/07/08 00:53:18;;;;;;;11.38;10.27;;;;;;;17.27;nan;101094.84;5024804;28;20395;-81
2021/07/08 00:56:04;;;;;;;11.02;9.93;;;;;;;17.21;nan;101090.56;5023850;28;20048;-80
2021/07/08 00:58:29;;;;;;;11.30;10.15;;;;;;;17.24;nan;101090.47;5019320;28;20037;-80
2021/07/08 01:00:55;;;;;;;11.23;10.10;;;;;;;17.21;nan;101093.22;5023574;28;20400;-79
2021/07/08 01:03:22;;;;;;;11.80;10.63;;;;;;;17.21;nan;101100.31;5022157;28;20381;-79
2021/07/08 01:05:49;;;;;;;11.30;10.30;;;;;;;17.17;nan;101099.53;5023575;28;20036;-79
2021/07/08 01:08:15;;;;;;;13.45;12.25;;;;;;;17.14;nan;101098.75;5022764;28;20034;-80
2021/07/08 01:10:45;;;;;;;11.00;9.90;;;;;;;17.09;nan;101102.38;5023199;28;20097;-80
2021/07/08 01:13:11;;;;;;;12.77;11.57;;;;;;;16.97;nan;101107.13;5026841;28;20416;-79
2021/07/08 01:15:37;;;;;;;15.95;13.63;;;;;;;16.83;nan;101110.13;5008203;28;20037;-80
2021/07/08 01:18:03;;;;;;;13.85;12.55;;;;;;;16.81;nan;101117.25;5026827;28;20041;-80
2021/07/08 01:20:31;;;;;;;12.32;11.15;;;;;;;16.78;nan;101120.00;5025553;28;20037;-80
2021/07/08 01:22:58;;;;;;;13.85;11.70;;;;;;;16.78;nan;101112.00;5027522;28;20415;-80
2021/07/08 01:25:34;;;;;;;10.73;9.73;;;;;;;16.73;nan;101113.88;5024784;28;20034;-79
2021/07/08 01:28:02;;;;;;;10.45;9.50;;;;;;;16.69;nan;101104.16;5005178;28;20378;-78
2021/07/08 01:30:27;;;;;;;13.57;12.35;;;;;;;16.64;nan;101094.50;5027061;28;20086;-80
2021/07/08 01:32:54;;;;;;;11.45;10.35;;;;;;;16.65;nan;101092.72;5026033;28;20438;-80
2021/07/08 01:35:19;;;;;;;13.10;10.63;;;;;;;16.63;nan;101090.06;5027760;28;20033;-80
2021/07/08 01:37:45;;;;;;;11.07;9.98;;;;;;;16.64;nan;101089.19;5026475;28;20048;-80
2021/07/08 01:40:13;;;;;;;12.18;11.00;;;;;;;16.67;nan;101098.03;5009861;28;20179;-80
2021/07/08 01:42:38;;;;;;;13.30;12.10;;;;;;;16.68;nan;101099.75;4993265;28;20431;-80
2021/07/08 01:45:06;;;;;;;15.82;14.15;;;;;;;16.67;nan;101098.91;5008816;28;20044;-80
2021/07/08 01:47:31;;;;;;;13.05;11.85;;;;;;;16.65;nan;101090.06;5009030;28;20030;-80
2021/07/08 01:49:58;;;;;;;15.25;13.75;;;;;;;16.65;nan;101090.91;5024294;28;20034;-80
2021/07/08 01:52:23;;;;;;;14.65;13.25;;;;;;;16.63;nan;101092.72;5025745;28;20108;-80
2021/07/08 01:54:49;;;;;;;16.23;14.63;;;;;;;16.64;nan;101096.31;5026454;28;20523;-80
2021/07/08 01:57:15;;;;;;;15.88;14.27;;;;;;;16.64;nan;101099.84;5025569;28;20033;-80
2021/07/08 01:59:41;;;;;;;17.38;14.23;;;;;;;16.65;nan;101100.72;5026338;28;20613;-80
2021/07/08 02:02:06;;;;;;;13.13;11.82;;;;;;;16.65;nan;101093.59;5025588;28;20041;-80
2021/07/08 02:04:31;;;;;;;14.10;12.75;;;;;;;16.64;nan;101098.97;4992602;28;20128;-80
2021/07/08 02:06:57;;;;;;;13.88;12.48;;;;;;;16.61;nan;101105.25;5006044;28;20038;-79
2021/07/08 02:09:22;;;;;;;20.92;16.33;;;;;;;16.58;nan;101097.31;5024792;28;20044;-80
2021/07/08 02:11:47;;;;;;;17.88;16.08;;;;;;;16.59;nan;101100.84;5025768;28;20067;-80
2021/07/08 02:14:13;;;;;;;17.85;15.95;;;;;;;16.59;nan;101095.53;5024618;28;20037;-80
2021/07/08 02:16:38;;;;;;;15.90;14.30;;;;;;;16.55;nan;101097.34;4992718;28;20038;-80
2021/07/08 02:19:05;;;;;;;14.20;12.43;;;;;;;16.53;nan;101091.22;5007397;28;20037;-80
2021/07/08 02:21:31;;;;;;;14.15;12.70;;;;;;;16.50;nan;101098.38;5026194;28;20033;-80
2021/07/08 02:23:56;;;;;;;17.60;15.88;;;;;;;16.49;nan;101093.97;5024261;28;20053;-80
2021/07/08 02:26:22;;;;;;;17.27;15.48;;;;;;;16.50;nan;101088.59;5025634;28;20046;-80
2021/07/08 02:28:47;;;;;;;18.05;16.45;;;;;;;16.50;nan;101096.59;5024407;28;20046;-80
2021/07/08 02:31:13;;;;;;;16.35;14.77;;;;;;;16.53;nan;101099.22;5025922;28;20056;-80
2021/07/08 02:33:38;;;;;;;17.17;15.48;;;;;;;16.56;nan;101090.28;5023528;28;20046;-80
2021/07/08 02:36:06;;;;;;;21.52;19.48;;;;;;;16.59;nan;101088.41;5023860;28;20111;-80
2021/07/08 02:38:33;;;;;;;17.98;16.27;;;;;;;16.61;nan;101094.59;5026030;28;20073;-79
2021/07/08 02:40:58;;;;;;;18.92;16.95;;;;;;;16.62;nan;101096.31;5024193;28;20033;-80
2021/07/08 02:43:24;;;;;;;17.95;15.65;;;;;;;16.64;nan;101096.31;5026330;28;20056;-79
2021/07/08 02:45:49;;;;;;;20.55;18.45;;;;;;;16.67;nan;101098.91;5024345;28;20091;-79
2021/07/08 02:48:18;;;;;;;19.73;17.70;;;;;;;16.72;nan;101104.13;5026534;28;20041;-79
2021/07/08 02:50:46;;;;;;;19.73;17.92;;;;;;;16.72;nan;101102.34;5005044;28;20036;-79
2021/07/08 02:53:12;;;;;;;21.15;18.27;;;;;;;16.73;nan;101103.19;5018948;28;20653;-80
2021/07/08 02:55:39;;;;;;;15.77;14.23;;;;;;;16.68;nan;101105.09;5027255;28;20025;-80
2021/07/08 02:58:05;;;;;;;17.45;15.60;;;;;;;16.67;nan;101108.69;5024064;28;20060;-80
2021/07/08 03:00:31;;;;;;;19.67;17.58;;;;;;;16.69;nan;101115.72;5026868;28;20484;-80
2021/07/08 03:02:57;;;;;;;17.67;15.95;;;;;;;16.71;nan;101113.88;5024184;28;20579;-80
2021/07/08 03:05:23;;;;;;;17.30;15.70;;;;;;;16.74;nan;101118.28;5026119;28;20037;-80
2021/07/08 03:07:49;;;;;;;16.98;15.38;;;;;;;16.76;nan;101119.13;5024259;28;20033;-80
2021/07/08 03:10:17;;;;;;;14.15;12.93;;;;;;;16.75;nan;101117.38;5008818;28;20041;-80
2021/07/08 03:12:42;;;;;;;16.15;14.55;;;;;;;16.75;nan;101117.38;4990427;28;20045;-80
2021/07/08 03:15:11;;;;;;;16.23;14.60;;;;;;;16.76;nan;101120.00;5025430;28;20037;-79
2021/07/08 03:17:37;;;;;;;18.13;16.42;;;;;;;16.77;nan;101126.22;5020855;28;20037;-80
2021/07/08 03:20:12;;;;;;;18.40;16.70;;;;;;;16.81;nan;101119.94;5024329;28;20038;-79
2021/07/08 03:22:42;;;;;;;16.40;14.65;;;;;;;16.83;nan;101123.44;5005901;28;20500;-80
2021/07/08 03:25:08;;;;;;;14.45;13.00;;;;;;;16.81;nan;101115.47;5026047;28;20461;-79
2021/07/08 03:27:34;;;;;;;12.70;11.40;;;;;;;16.78;nan;101120.00;5019125;28;20420;-79
2021/07/08 03:29:59;;;;;;;10.77;9.73;;;;;;;16.74;nan;101128.94;5027043;28;20039;-80
2021/07/08 03:32:25;;;;;;;16.63;14.90;;;;;;;16.76;nan;101124.44;4989438;28;20400;-80
2021/07/08 03:34:50;;;;;;;15.45;13.98;;;;;;;16.82;nan;101119.00;5026293;28;20033;-79
2021/07/08 03:37:15;;;;;;;13.88;12.55;;;;;;;16.89;nan;101114.44;5022105;28;20447;-80
2021/07/08 03:39:41;;;;;;;12.10;11.00;;;;;;;16.86;nan;101115.38;5025879;28;20045;-79
2021/07/08 03:42:06;;;;;;;10.43;9.48;;;;;;;16.84;nan;101109.19;5004954;28;20120;-80
2021/07/08 03:44:31;;;;;;;10.13;9.20;;;;;;;16.86;nan;101107.38;5025068;28;20046;-80
2021/07/08 03:46:57;;;;;;;9.65;8.70;;;;;;;16.90;nan;101119.75;5021728;28;20034;-79
2021/07/08 03:49:22;;;;;;;10.73;9.73;;;;;;;17.00;nan;101117.72;5025804;28;20045;-79
2021/07/08 03:51:47;;;;;;;12.70;10.98;;;;;;;17.06;nan;101123.78;5022231;28;20041;-80
2021/07/08 03:54:13;;;;;;;14.85;13.45;;;;;;;17.18;nan;101121.75;5009663;28;20091;-79
2021/07/08 03:56:38;;;;;;;15.05;13.60;;;;;;;17.27;nan;101122.41;4988749;28;20048;-79
2021/07/08 03:59:03;;;;;;;16.98;15.32;;;;;;;17.37;nan;101115.06;5008332;28;20037;-79
2021/07/08 04:01:29;;;;;;;20.92;18.92;;;;;;;17.49;nan;101111.19;5022009;28;20033;-79
2021/07/08 04:03:54;;;;;;;17.55;15.75;;;;;;;17.57;nan;101108.31;5026163;28;20045;-79
2021/07/08 04:06:19;;;;;;;18.83;16.67;;;;;;;17.66;nan;101110.78;5022240;28;20041;-82
2021/07/08 04:08:45;;;;;;;18.15;16.25;;;;;;;17.70;nan;101115.97;5026573;28;20041;-77
2021/07/08 04:11:10;;;;;;;20.98;18.52;;;;;;;17.79;nan;101120.25;5025763;28;20026;-79
2021/07/08 04:13:36;;;;;;;16.92;15.20;;;;;;;17.83;nan;101127.22;5028932;28;20064;-79
2021/07/08 04:16:01;;;;;;;13.57;12.18;;;;;;;17.83;nan;101132.56;5025676;28;20070;-79
2021/07/08 04:18:26;;;;;;;13.70;12.30;;;;;;;17.87;nan;101123.56;5027978;28;20052;-78
2021/07/08 04:20:52;;;;;;;10.82;9.82;;;;;;;17.81;nan;101123.72;5024489;28;20076;-78
2021/07/08 04:23:18;;;;;;;14.63;12.18;;;;;;;17.81;nan;101126.38;5028175;28;20048;-78
2021/07/08 04:25:43;;;;;;;13.60;12.05;;;;;;;17.90;nan;101134.16;5007019;28;20042;-78
2021/07/08 04:28:10;;;;;;;15.13;13.57;;;;;;;18.04;nan;101122.22;5010177;28;20041;-78
2021/07/08 04:30:37;;;;;;;12.93;11.70;;;;;;;18.16;nan;101124.56;5016298;28;20044;-78
2021/07/08 04:33:02;;;;;;;14.30;12.90;;;;;;;18.30;nan;101125.03;5023056;28;20049;-78
2021/07/08 04:35:35;;;;;;;17.88;16.05;;;;;;;18.43;nan;101122.03;5026738;28;20075;-78
2021/07/08 04:38:01;;;;;;;15.75;13.90;;;;;;;18.64;nan;101126.72;5008261;28;20408;-79
2021/07/08 04:40:26;;;;;;;13.27;11.82;;;;;;;18.76;nan;101131.75;5022764;28;20049;-78
2021/07/08 04:42:53;;;;;;;13.18;10.90;;;;;;;18.87;nan;101122.50;5006265;28;20049;-79
2021/07/08 04:45:19;;;;;;;10.25;9.25;;;;;;;18.92;nan;101131.28;5024386;28;20046;-80
2021/07/08 04:47:45;;;;;;;10.32;9.32;;;;;;;18.94;nan;101122.28;5010545;28;20399;-78
2021/07/08 04:50:15;;;;;;;10.43;9.43;;;;;;;19.00;nan;101121.19;5028889;28;20045;-78
2021/07/08 04:52:41;;;;;;;15.35;13.85;;;;;;;19.03;nan;101119.28;5012283;28;20037;-79
2021/07/08 04:55:09;;;;;;;19.27;15.75;;;;;;;19.04;nan;101131.72;5012149;28;20415;-79
2021/07/08 04:57:34;;;;;;;14.02;12.63;;;;;;;19.07;nan;101130.75;5026983;28;20154;-79
2021/07/08 05:00:00;;;;;;;12.60;11.30;;;;;;;19.12;nan;101131.50;4979271;28;20038;-79
2021/07/08 05:02:25;;;;;;;11.88;10.80;;;;;;;19.17;nan;101121.50;5026529;28;20040;-79
2021/07/08 05:04:50;;;;;;;15.52;13.57;;;;;;;19.24;nan;101116.84;5028738;28;20040;-79
2021/07/08 05:07:16;;;;;;;15.95;13.75;;;;;;;19.34;nan;101112.09;5008624;28;20472;-79
2021/07/08 05:09:42;;;;;;;16.65;14.88;;;;;;;19.40;nan;101095.81;4995552;28;20048;-79
2021/07/08 05:12:08;;;;;;;12.95;10.38;;;;;;;19.43;nan;101087.66;5008165;28;20144;-79
2021/07/08 05:14:34;;;;;;;10.18;9.15;;;;;;;19.37;nan;101088.75;5028262;28;20033;-79
2021/07/08 05:17:03;;;;;;;10.00;9.00;;;;;;;19.36;nan;101091.47;5008228;28;20081;-79
2021/07/08 05:19:29;;;;;;;10.23;8.82;;;;;;;19.34;nan;101094.22;5021244;28;20506;-79
2021/07/08 05:21:55;;;;;;;10.35;7.55;;;;;;;19.29;nan;101106.00;5021054;28;20075;-79
2021/07/08 05:24:23;;;;;;;10.88;9.85;;;;;;;19.27;nan;101112.25;5008392;28;20041;-79
2021/07/08 05:26:49;;;;;;;8.98;8.07;;;;;;;19.35;nan;101109.34;5024270;28;20065;-79
2021/07/08 05:29:15;;;;;;;9.50;7.32;;;;;;;19.37;nan;101111.97;5010011;23;20041;-74
2021/07/08 05:31:41;;;;;;;9.68;7.57;;;;;;;19.41;nan;101106.47;5046674;28;20041;-75
2021/07/08 05:34:06;;;;;;;8.77;7.97;;;;;;;19.52;nan;101107.88;5042508;28;20488;-75
2021/07/08 05:36:32;;;;;;;7.85;7.15;;;;;;;19.59;nan;101102.28;5045875;28;20029;-75
2021/07/08 05:38:57;;;;;;;9.00;7.15;;;;;;;19.70;nan;101102.81;5043530;28;20512;-75
2021/07/08 05:41:22;;;;;;;11.75;10.57;;;;;;;19.81;nan;101098.91;5023217;28;20435;-75
2021/07/08 05:43:47;;;;;;;16.80;13.23;;;;;;;19.92;nan;101104.75;5024699;28;20492;-75
2021/07/08 05:46:13;;;;;;;19.13;12.68;;;;;;;20.01;nan;101104.38;5022313;28;20164;-75
2021/07/08 05:48:38;;;;;;;8.68;6.57;;;;;;;20.03;nan;101104.34;5025232;28;20116;-75
2021/07/08 05:51:03;;;;;;;9.50;7.85;;;;;;;19.98;nan;101106.31;5022225;28;20034;-74
2021/07/08 05:53:29;;;;;;;9.65;6.97;;;;;;;19.97;nan;101112.63;5025445;28;20393;-74
2021/07/08 05:55:54;;;;;;;6.88;5.68;;;;;;;19.88;nan;101116.47;5021644;28;20112;-75
2021/07/08 05:58:20;;;;;;;7.68;6.72;;;;;;;19.93;nan;101115.38;5024052;28;20041;-75
2021/07/08 06:00:47;;;;;;;10.07;6.18;;;;;;;20.01;nan;101115.09;5022431;28;20771;-75
2021/07/08 06:03:16;;;;;;;9.73;8.68;;;;;;;20.08;nan;101111.28;5023983;28;20255;-75
2021/07/08 06:05:42;;;;;;;9.27;6.93;;;;;;;20.13;nan;101108.44;5023500;28;20443;-75
2021/07/08 06:08:07;;;;;;;8.88;6.95;;;;;;;20.18;nan;101113.66;5021495;28;20065;-75
2021/07/08 06:10:33;;;;;;;8.18;5.95;;;;;;;20.19;nan;101112.69;5039471;28;20106;-75
2021/07/08 06:12:58;;;;;;;8.25;7.15;;;;;;;20.22;nan;101117.94;5021827;28;20067;-74
2021/07/08 06:15:24;;;;;;;9.30;7.93;;;;;;;20.28;nan;101112.38;5024657;28;20159;-75
2021/07/08 06:17:49;;;;;;;7.78;5.90;;;;;;;20.27;nan;101102.56;5036542;28;20072;-74
2021/07/08 06:20:15;;;;;;;8.85;7.93;;;;;;;20.27;nan;101098.06;5024825;28;20052;-75
2021/07/08 06:22:41;;;;;;;9.48;7.43;;;;;;;20.30;nan;101099.75;5021788;28;20040;-75
2021/07/08 06:25:07;;;;;;;10.68;8.40;;;;;;;20.32;nan;101103.28;5023792;28;20038;-74
2021/07/08 06:27:32;;;;;;;10.27;8.05;;;;;;;20.35;nan;101098.66;5022231;28;20025;-75
2021/07/08 06:29:58;;;;;;;9.30;8.02;;;;;;;20.40;nan;101094.94;5023135;28;20029;-75
2021/07/08 06:32:23;;;;;;;7.38;5.63;;;;;;;20.42;nan;101093.94;5025254;28;20495;-75
2021/07/08 06:34:48;;;;;;;7.75;6.03;;;;;;;20.47;nan;101091.97;5022898;28;20045;-75
2021/07/08 06:37:16;;;;;;;8.00;7.20;;;;;;;20.48;nan;101091.03;5022232;28;20029;-75
2021/07/08 06:39:41;;;;;;;6.72;5.53;;;;;;;20.51;nan;101087.34;5023761;28;20041;-75
2021/07/08 06:42:07;;;;;;;9.20;6.80;;;;;;;20.53;nan;101080.13;5024816;28;20523;-75
2021/07/08 06:44:32;;;;;;;7.40;6.70;;;;;;;20.59;nan;101082.59;5024100;28;20116;-75
2021/07/08 06:46:58;;;;;;;9.43;6.90;;;;;;;20.67;nan;101084.97;5019402;28;20038;-75
2021/07/08 06:49:23;;;;;;;10.55;6.53;;;;;;;20.75;nan;101090.91;5024154;28;20040;-74
2021/07/08 06:51:48;;;;;;;7.25;5.93;;;;;;;20.85;nan;101099.47;5021197;28;20552;-75
2021/07/08 06:54:14;;;;;;;9.15;7.00;;;;;;;20.98;nan;101092.69;5023386;28;20057;-75
2021/07/08 06:56:39;;;;;;;8.52;7.60;;;;;;;21.06;nan;101090.56;5021525;28;20042;-75
2021/07/08 06:59:05;;;;;;;7.93;6.07;;;;;;;21.17;nan;101087.47;5021540;28;20084;-75
2021/07/08 07:01:30;;;;;;;7.70;6.90;;;;;;;21.25;nan;101079.97;5022186;28;20038;-75
2021/07/08 07:03:55;;;;;;;7.10;6.20;;;;;;;21.30;nan;101079.75;5022155;28;20044;-75
2021/07/08 07:06:21;;;;;;;6.05;5.03;;;;;;;21.33;nan;101076.94;5022455;28;20025;-75
2021/07/08 07:08:46;;;;;;;5.82;4.90;;;;;;;21.37;nan;101083.91;5020863;28;20088;-75
2021/07/08 07:11:11;;;;;;;7.95;5.50;;;;;;;21.37;nan;101090.16;5022802;28;20038;-75
2021/07/08 07:13:37;;;;;;;7.43;4.93;;;;;;;21.37;nan;101092.84;5020993;28;20073;-75
2021/07/08 07:16:03;;;;;;;8.20;4.28;;;;;;;21.44;nan;101086.31;5023364;28;20123;-75
2021/07/08 07:18:28;;;;;;;5.78;4.30;;;;;;;21.42;nan;101084.63;5020227;28;20570;-75
2021/07/08 07:20:54;;;;;;;6.03;5.30;;;;;;;21.51;nan;101086.03;5023630;28;20041;-74
2021/07/08 07:23:19;;;;;;;6.75;4.88;;;;;;;21.63;nan;101086.38;5020549;28;20036;-75
2021/07/08 07:25:45;;;;;;;10.48;6.88;;;;;;;21.77;nan;101090.28;5022718;28;20116;-74
2021/07/08 07:28:11;;;;;;;7.53;5.13;;;;;;;21.87;nan;101097.88;5025212;28;20024;-75
2021/07/08 07:30:37;;;;;;;5.03;4.15;;;;;;;21.98;nan;101083.97;5026927;28;20041;-75
2021/07/08 07:33:03;;;;;;;5.78;3.72;;;;;;;22.03;nan;101091.81;5024917;28;20480;-75
2021/07/08 07:35:28;;;;;;;3.88;2.88;;;;;;;22.07;nan;101097.00;5027105;28;20037;-75
2021/07/08 07:37:54;;;;;;;4.70;3.33;;;;;;;22.10;nan;101091.47;5032044;28;20029;-75
2021/07/08 07:40:20;;;;;;;5.13;2.95;;;;;;;22.19;nan;101084.84;5027206;28;20034;-75
2021/07/08 07:42:46;;;;;;;5.63;4.18;;;;;;;22.26;nan;101091.69;5021641;28;20033;-75
2021/07/08 07:45:12;;;;;;;5.18;4.35;;;;;;;22.33;nan;101086.03;5027356;28;20048;-75
2021/07/08 07:47:38;;;;;;;7.38;5.25;;;;;;;22.43;nan;101087.34;5019764;28;20037;-75
2021/07/08 07:50:05;;;;;;;7.32;4.53;;;;;;;22.48;nan;101077.25;5022892;28;20041;-75
2021/07/08 07:52:30;;;;;;;4.72;3.00;;;;;;;22.49;nan;101081.69;5020745;28;20042;-75
2021/07/08 07:54:56;;;;;;;5.45;3.22;;;;;;;22.51;nan;101090.56;5021729;28;20040;-75
2021/07/08 07:57:21;;;;;;;4.70;3.22;;;;;;;22.53;nan;101088.63;5020992;28;20057;-75
2021/07/08 07:59:46;;;;;;;5.43;3.45;;;;;;;22.53;nan;101100.28;5020176;28;20037;-75
2021/07/08 08:02:15;;;;;;;4.95;3.10;;;;;;;22.54;nan;101095.78;5021679;28;20034;-75
2021/07/08 08:10:15;;;;;;;5.13;2.10;;;;;;;22.62;nan;101127.72;5027956;28;20024;-75
2021/07/08 08:12:41;;;;;;;5.53;2.85;;;;;;;22.65;nan;101124.88;5024504;28;20060;-75
2021/07/08 08:15:08;;;;;;;3.88;2.78;;;;;;;22.63;nan;101138.38;5021702;28;20038;-75
2021/07/08 08:17:35;;;;;;;4.25;2.88;;;;;;;22.60;nan;101143.91;5020187;28;20045;-75
2021/07/08 08:20:00;;;;;;;4.07;2.97;;;;;;;22.67;nan;101153.44;5022988;28;20021;-75
2021/07/08 08:22:25;;;;;;;5.00;3.72;;;;;;;22.73;nan;101160.34;5026305;28;20048;-75
2021/07/08 08:24:51;;;;;;;5.15;3.03;;;;;;;22.70;nan;101163.19;5029304;28;20048;-75
2021/07/08 08:27:16;;;;;;;4.20;2.70;;;;;;;22.68;nan;101171.31;5026062;28;20030;-75
2021/07/08 08:29:42;;;;;;;3.45;2.42;;;;;;;22.76;nan;101166.44;5028910;28;20041;-75
2021/07/08 08:32:09;;;;;;;3.28;2.28;;;;;;;22.76;nan;101163.75;5026684;28;20048;-75
2021/07/08 08:34:35;;;;;;;5.55;2.20;;;;;;;22.81;nan;101165.38;5030536;28;20045;-75
2021/07/08 08:37:01;;;;;;;5.35;2.20;;;;;;;22.71;nan;101156.84;5026376;28;20029;-75
2021/07/08 08:39:26;;;;;;;3.78;2.05;;;;;;;22.67;nan;101153.44;5027640;28;20041;-75
2021/07/08 08:41:51;;;;;;;2.50;1.63;;;;;;;22.74;nan;101152.22;5032064;28;20038;-75
2021/07/08 08:44:17;;;;;;;2.70;1.70;;;;;;;22.67;nan;101148.06;5026762;28;20033;-76
2021/07/08 08:46:42;;;;;;;3.63;1.85;;;;;;;22.76;nan;101142.22;5028511;28;20431;-75
2021/07/08 08:49:08;;;;;;;3.85;2.28;;;;;;;22.94;nan;101137.81;5024934;28;20045;-75
2021/07/08 08:51:35;;;;;;;4.43;2.33;;;;;;;23.06;nan;101135.50;5029151;28;20115;-75
2021/07/08 08:54:00;;;;;;;3.75;2.35;;;;;;;23.10;nan;101135.28;5025804;28;20040;-75
2021/07/08 08:56:27;;;;;;;4.13;2.85;;;;;;;23.16;nan;101137.69;5028832;28;20045;-75
2021/07/08 08:58:52;;;;;;;4.00;2.72;;;;;;;23.18;nan;101135.75;5026385;28;20116;-76
2021/07/08 09:01:18;;;;;;;3.00;1.90;;;;;;;23.15;nan;101133.22;5028112;28;20069;-75
2021/07/08 09:03:45;;;;;;;3.92;1.80;;;;;;;23.07;nan;101138.13;5026770;28;20073;-75
2021/07/08 09:06:12;;;;;;;6.63;2.55;;;;;;;23.13;nan;101137.84;5027071;28;20400;-76
2021/07/08 09:08:48;;;;;;;4.25;2.60;;;;;;;23.28;nan;101136.19;5039997;28;20407;-75
2021/07/08 09:11:24;;;;;;;4.32;1.92;;;;;;;23.34;nan;101130.53;5025776;28;20068;-76
2021/07/08 09:13:52;;;;;;;3.22;1.70;;;;;;;23.22;nan;101127.56;5027157;28;20491;-76
2021/07/08 09:16:23;;;;;;;4.28;2.10;;;;;;;23.15;nan;101135.06;5027825;28;20052;-75
2021/07/08 09:19:17;;;;;;;4.57;1.70;;;;;;;23.24;nan;101131.91;5025649;28;20389;-75
2021/07/08 09:21:48;;;;;;;5.20;2.90;;;;;;;23.38;nan;101131.22;5025495;28;20088;-75
2021/07/08 09:24:20;;;;;;;4.40;2.30;;;;;;;23.61;nan;101121.97;5027774;28;20041;-76
2021/07/08 09:27:08;;;;;;;2.60;1.70;;;;;;;23.54;nan;101121.41;5027546;28;20283;-75
2021/07/08 09:29:51;;;;;;;3.28;1.60;;;;;;;23.33;nan;101112.59;5027222;28;20041;-75
2021/07/08 09:32:22;;;;;;;5.22;1.75;;;;;;;23.11;nan;101106.56;5023890;28;20393;-75
2021/07/08 09:34:52;;;;;;;4.03;1.75;;;;;;;22.95;nan;101125.19;5022796;28;20033;-75
2021/07/08 09:37:21;;;;;;;5.88;2.10;;;;;;;22.96;nan;101130.56;5020270;28;20057;-76
2021/07/08 09:40:00;;;;;;;4.28;1.80;;;;;;;22.97;nan;101129.59;5025321;28;20087;-75
2021/07/08 09:42:44;;;;;;;3.83;1.63;;;;;;;22.74;nan;101133.38;5023761;28;20046;-75
2021/07/08 09:45:12;;;;;;;5.55;1.90;;;;;;;22.42;nan;101126.78;5037671;28;20397;-76
2021/07/08 09:47:39;;;;;;;4.28;1.75;;;;;;;22.26;nan;101121.25;5024457;28;20036;-75
2021/07/08 09:50:06;;;;;;;3.28;1.52;;;;;;;22.26;nan;101123.06;5023345;28;20038;-75
2021/07/08 09:52:32;;;;;;;6.32;1.77;;;;;;;22.36;nan;101119.03;5023421;28;20057;-75
2021/07/08 09:57:41;;;;;;;4.45;1.65;;;;;;;22.27;nan;101125.72;5022120;28;20503;-75
2021/07/08 10:00:28;;;;;;;4.68;1.60;;;;;;;22.04;nan;101124.00;5023298;28;20030;-75
2021/07/08 10:02:54;;;;;;;3.67;1.60;;;;;;;21.83;nan;101127.66;5039986;28;20038;-75
2021/07/08 10:05:21;;;;;;;2.88;1.75;;;;;;;21.76;nan;101124.34;5034985;28;20081;-76
2021/07/08 10:07:47;;;;;;;4.78;1.52;;;;;;;21.70;nan;101130.00;5027882;28;20438;-76
2021/07/08 10:10:14;;;;;;;4.00;1.80;;;;;;;21.79;nan;101132.25;5028004;28;20033;-75
2021/07/08 10:12:41;;;;;;;5.07;1.92;;;;;;;21.87;nan;101135.50;5022336;28;20395;-75
2021/07/08 10:15:09;;;;;;;3.25;1.85;;;;;;;21.95;nan;101119.03;5024457;28;20029;-76
2021/07/08 10:17:37;;;;;;;4.30;1.80;;;;;;;22.04;nan;101113.25;5021286;28;20168;-75
2021/07/08 10:20:05;;;;;;;3.25;2.00;;;;;;;22.32;nan;101112.03;5024962;28;20038;-74
2021/07/08 10:22:30;;;;;;;3.50;2.00;;;;;;;22.34;nan;101103.91;5022456;28;20049;-75
2021/07/08 10:24:55;;;;;;;3.10;1.90;;;;;;;22.52;nan;101116.50;5021159;28;20029;-75
2021/07/08 10:27:22;;;;;;;3.70;1.95;;;;;;;22.35;nan;101101.16;5030742;28;20117;-76
2021/07/08 10:29:48;;;;;;;6.95;2.35;;;;;;;22.34;nan;101106.59;5027325;28;20045;-75
2021/07/08 10:32:17;;;;;;;4.78;1.90;;;;;;;22.43;nan;101109.75;5020542;28;20030;-75
2021/07/08 10:34:45;;;;;;;3.70;2.00;;;;;;;22.38;nan;101111.78;5024492;28;20032;-75
2021/07/08 10:37:20;;;;;;;4.10;2.22;;;;;;;22.31;nan;101113.84;5021069;28;20057;-75
2021/07/08 10:39:46;;;;;;;2.78;1.92;;;;;;;22.35;nan;101124.47;5028585;28;20034;-75
2021/07/08 10:42:11;;;;;;;3.78;2.00;;;;;;;22.38;nan;101118.97;5023054;28;20117;-75
2021/07/08 10:44:47;;;;;;;3.30;2.28;;;;;;;22.36;nan;101119.03;5022032;28;20823;-75
2021/07/08 10:47:29;;;;;;;7.55;2.60;;;;;;;22.54;nan;101120.00;5020983;28;20042;-75
2021/07/08 10:49:54;;;;;;;;;;;;;;;22.64;nan;101118.63;5021939;28;20030;-75
2021/07/08 10:52:39;;;;;;;3.88;1.90;;;;;;;22.58;nan;101124.28;5022392;28;19917;-75
2021/07/08 10:55:05;;;;;;;3.72;2.17;;;;;;;22.43;nan;101125.00;5022341;28;20107;-75
2021/07/08 10:57:38;;;;;;;3.10;2.15;;;;;;;22.42;nan;101123.25;5020372;28;20041;-76
2021/07/08 11:00:09;;;;;;;3.80;2.20;;;;;;;22.45;nan;101117.72;5020437;28;20045;-76
2021/07/08 11:02:46;;;;;;;5.45;2.10;;;;;;;22.40;nan;101114.38;5022023;28;20087;-76
2021/07/08 11:05:13;;;;;;;3.47;2.25;;;;;;;22.43;nan;101125.00;5022987;28;20120;-76
2021/07/08 11:07:47;;;;;;;3.55;2.53;;;;;;;22.23;nan;101121.41;5020794;28;20040;-75
2021/07/08 11:10:13;;;;;;;3.85;2.38;;;;;;;22.26;nan;101123.94;5021102;28;20046;-76
2021/07/08 11:12:43;;;;;;;4.90;2.30;;;;;;;22.07;nan;101118.50;5022904;28;20067;-75
2021/07/08 11:15:09;;;;;;;5.75;2.58;;;;;;;22.00;nan;101113.47;5022279;28;20136;-76
2021/07/08 11:17:45;;;;;;;4.10;2.70;;;;;;;21.99;nan;101114.41;5021248;28;20480;-75
2021/07/08 11:20:30;;;;;;;4.47;2.35;;;;;;;21.94;nan;101100.31;5031004;28;20036;-76
2021/07/08 11:22:57;;;;;;;3.92;2.50;;;;;;;22.20;nan;101097.34;5022759;28;20030;-75
2021/07/08 11:25:40;;;;;;;4.30;2.80;;;;;;;22.26;nan;101091.69;5026083;28;20029;-76
2021/07/08 11:28:27;;;;;;;7.57;2.70;;;;;;;22.77;nan;101086.63;5031692;28;20041;-75
2021/07/08 11:31:01;;;;;;;3.83;2.47;;;;;;;23.13;nan;101073.22;5028798;28;20396;-76
2021/07/08 11:33:28;;;;;;;4.10;2.45;;;;;;;23.48;nan;101073.25;5026328;28;20562;-76
2021/07/08 11:35:56;;;;;;;4.65;2.30;;;;;;;23.76;nan;101077.22;5025028;28;20132;-75
2021/07/08 11:38:23;;;;;;;4.60;2.70;;;;;;;23.96;nan;101071.63;5022892;28;20063;-75
2021/07/08 11:40:51;;;;;;;5.93;2.28;;;;;;;24.24;nan;101076.41;5021046;28;20037;-76
2021/07/08 11:43:36;;;;;;;3.60;2.60;;;;;;;24.45;nan;101071.69;5021839;28;20033;-76